sensor_id;sensor_type;location;lat;lon;timestamp;pressure;altitude;pressure_sealevel;temperature;humidity
19457;BME280;9867;48.094;11.478;2023-07-20T00:02:24;95036.25;;;21.43;100.00
19457;BME280;9867;48.094;11.478;2023-07-20T00:04:52;95038.56;;;21.50;100.00
19457;BME280;9867;48.094;11.478;2023-07-20T00:07:20;95034.69;;;21.47;100.00
19457;BME280;9867;48.094;11.478;2023-07-20T00:09:48;95033.66;;;21.33;100.00
19457;BME280;9867;48.094;11.478;2023-07-20T00:12:16;95022.97;;;21.29;100.00
19457;BME280;9867;48.094;11.478;2023-07-20T00:14:44;95020.94;;;21.21;100.00
19457;BME280;9867;48.094;11.478;2023-07-20T00:17:15;95031.41;;;21.01;100.00
19457;BME280;9867;48.094;11.478;2023-07-20T00:19:48;95025.66;;;20.94;100.00
19457;BME280;9867;48.094;11.478;2023-07-20T00:22:16;95026.19;;;20.91;100.00
19457;BME280;9867;48.094;11.478;2023-07-20T00:24:44;95033.44;;;21.04;100.00
19457;BME280;9867;48.094;11.478;2023-07-20T00:27:12;95033.72;;;21.02;100.00
19457;BME280;9867;48.094;11.478;2023-07-20T00:29:40;95035.53;;;21.07;100.00
19457;BME280;9867;48.094;11.478;2023-07-20T00:32:08;95025.63;;;21.04;100.00
19457;BME280;9867;48.094;11.478;2023-07-20T00:34:36;95049.34;;;21.13;100.00
19457;BME280;9867;48.094;11.478;2023-07-20T00:37:06;95053.03;;;21.22;100.00
19457;BME280;9867;48.094;11.478;2023-07-20T00:39:34;95050.13;;;21.28;100.00
19457;BME280;9867;48.094;11.478;2023-07-20T00:42:02;95034.97;;;21.30;100.00
19457;BME280;9867;48.094;11.478;2023-07-20T00:44:30;95034.19;;;21.40;100.00
19457;BME280;9867;48.094;11.478;2023-07-20T00:46:58;95044.13;;;21.33;100.00
19457;BME280;9867;48.094;11.478;2023-07-20T00:49:27;95042.34;;;21.23;100.00
19457;BME280;9867;48.094;11.478;2023-07-20T00:51:57;95051.44;;;21.16;100.00
19457;BME280;9867;48.094;11.478;2023-07-20T00:54:27;95053.81;;;21.22;100.00
19457;BME280;9867;48.094;11.478;2023-07-20T00:56:55;95071.56;;;21.20;100.00
19457;BME280;9867;48.094;11.478;2023-07-20T00:59:23;95066.06;;;21.22;100.00
19457;BME280;9867;48.094;11.478;2023-07-20T01:01:51;95049.06;;;21.29;100.00
19457;BME280;9867;48.094;11.478;2023-07-20T01:04:20;95062.69;;;21.21;100.00
19457;BME280;9867;48.094;11.478;2023-07-20T01:06:55;95055.34;;;21.13;100.00
19457;BME280;9867;48.094;11.478;2023-07-20T01:09:33;95048.88;;;20.95;100.00
19457;BME280;9867;48.094;11.478;2023-07-20T01:12:05;95051.19;;;21.12;100.00
19457;BME280;9867;48.094;11.478;2023-07-20T01:14:35;95045.97;;;21.12;100.00
19457;BME280;9867;48.094;11.478;2023-07-20T01:17:03;95028.22;;;21.09;100.00
19457;BME280;9867;48.094;11.478;2023-07-20T01:19:31;95037.88;;;21.03;100.00
19457;BME280;9867;48.094;11.478;2023-07-20T01:22:03;95036.09;;;20.99;100.00
19457;BME280;9867;48.094;11.478;2023-07-20T01:24:48;95040.50;;;21.03;100.00
19457;BME280;9867;48.094;11.478;2023-07-20T01:30:51;95042.34;;;20.88;100.00
19457;BME280;9867;48.094;11.478;2023-07-20T01:33:24;95044.97;;;20.83;100.00
19457;BME280;9867;48.094;11.478;2023-07-20T01:35:55;95041.56;;;20.92;100.00
19457;BME280;9867;48.094;11.478;2023-07-20T01:38:24;95049.16;;;20.79;100.00
19457;BME280;9867;48.094;11.478;2023-07-20T01:40:52;95056.69;;;20.90;100.00
19457;BME280;9867;48.094;11.478;2023-07-20T01:43:21;95048.59;;;20.82;100.00
19457;BME280;9867;48.094;11.478;2023-07-20T01:45:49;95049.16;;;20.79;100.00
19457;BME280;9867;48.094;11.478;2023-07-20T01:48:17;95060.09;;;20.65;100.00
19457;BME280;9867;48.094;11.478;2023-07-20T01:50:46;95048.38;;;20.53;100.00
19457;BME280;9867;48.094;11.478;2023-07-20T01:53:14;95055.41;;;20.52;100.00
19457;BME280;9867;48.094;11.478;2023-07-20T01:55:42;95063.22;;;20.47;100.00
19457;BME280;9867;48.094;11.478;2023-07-20T01:58:12;95017.59;;;20.39;100.00
19457;BME280;9867;48.094;11.478;2023-07-20T02:00:40;95056.19;;;20.78;100.00
19457;BME280;9867;48.094;11.478;2023-07-20T02:03:08;95055.41;;;20.72;100.00
19457;BME280;9867;48.094;11.478;2023-07-20T02:05:38;95065.31;;;20.45;100.00
19457;BME280;9867;48.094;11.478;2023-07-20T02:08:10;95052.53;;;20.43;100.00
19457;BME280;9867;48.094;11.478;2023-07-20T02:10:38;95053.84;;;20.51;100.00
19457;BME280;9867;48.094;11.478;2023-07-20T02:13:06;95051.25;;;20.66;100.00
19457;BME280;9867;48.094;11.478;2023-07-20T02:15:33;95058.03;;;20.67;100.00
19457;BME280;9867;48.094;11.478;2023-07-20T02:18:01;95052.00;;;20.62;100.00
19457;BME280;9867;48.094;11.478;2023-07-20T02:20:33;95059.00;;;20.36;100.00
19457;BME280;9867;48.094;11.478;2023-07-20T02:23:01;95066.56;;;20.32;100.00
19457;BME280;9867;48.094;11.478;2023-07-20T02:25:31;95058.47;;;20.34;100.00
19457;BME280;9867;48.094;11.478;2023-07-20T02:27:59;95051.19;;;20.36;100.00
19457;BME280;9867;48.094;11.478;2023-07-20T02:30:27;95044.47;;;20.50;100.00
19457;BME280;9867;48.094;11.478;2023-07-20T02:32:55;95047.84;;;20.56;100.00
19457;BME280;9867;48.094;11.478;2023-07-20T02:35:25;95049.94;;;20.43;100.00
19457;BME280;9867;48.094;11.478;2023-07-20T02:37:53;95052.28;;;20.40;100.00
19457;BME280;9867;48.094;11.478;2023-07-20T02:40:21;95045.50;;;20.39;100.00
19457;BME280;9867;48.094;11.478;2023-07-20T02:42:51;95044.44;;;20.40;100.00
19457;BME280;9867;48.094;11.478;2023-07-20T02:45:19;95060.88;;;20.51;100.00
19457;BME280;9867;48.094;11.478;2023-07-20T02:47:47;95071.84;;;20.48;100.00
19457;BME280;9867;48.094;11.478;2023-07-20T02:50:17;95074.13;;;20.29;100.00
19457;BME280;9867;48.094;11.478;2023-07-20T02:52:45;95098.03;;;20.10;100.00
19457;BME280;9867;48.094;11.478;2023-07-20T02:55:13;95089.88;;;19.87;100.00
19457;BME280;9867;48.094;11.478;2023-07-20T02:57:44;95079.97;;;19.73;100.00
19457;BME280;9867;48.094;11.478;2023-07-20T03:00:14;95073.50;;;19.34;100.00
19457;BME280;9867;48.094;11.478;2023-07-20T03:02:43;95085.31;;;19.04;100.00
19457;BME280;9867;48.094;11.478;2023-07-20T03:05:14;95088.25;;;18.81;100.00
19457;BME280;9867;48.094;11.478;2023-07-20T03:07:43;95091.06;;;18.74;100.00
19457;BME280;9867;48.094;11.478;2023-07-20T03:10:12;95088.81;;;18.56;100.00
19457;BME280;9867;48.094;11.478;2023-07-20T03:12:40;95090.84;;;18.81;100.00
19457;BME280;9867;48.094;11.478;2023-07-20T03:15:09;95086.22;;;18.88;100.00
19457;BME280;9867;48.094;11.478;2023-07-20T03:17:38;95084.81;;;18.49;100.00
19457;BME280;9867;48.094;11.478;2023-07-20T03:20:07;95096.66;;;18.34;100.00
19457;BME280;9867;48.094;11.478;2023-07-20T03:22:37;95104.97;;;18.10;100.00
19457;BME280;9867;48.094;11.478;2023-07-20T03:25:05;95111.03;;;18.15;100.00
19457;BME280;9867;48.094;11.478;2023-07-20T03:27:33;95114.00;;;18.29;100.00
19457;BME280;9867;48.094;11.478;2023-07-20T03:30:02;95099.88;;;18.20;100.00
19457;BME280;9867;48.094;11.478;2023-07-20T03:32:30;95094.97;;;18.18;100.00
19457;BME280;9867;48.094;11.478;2023-07-20T03:34:59;95104.28;;;18.19;100.00
19457;BME280;9867;48.094;11.478;2023-07-20T03:37:27;95113.25;;;18.06;100.00
19457;BME280;9867;48.094;11.478;2023-07-20T03:39:55;95111.22;;;18.35;100.00
19457;BME280;9867;48.094;11.478;2023-07-20T03:42:23;95114.84;;;18.34;100.00
19457;BME280;9867;48.094;11.478;2023-07-20T03:44:52;95109.16;;;18.37;100.00
19457;BME280;9867;48.094;11.478;2023-07-20T03:47:20;95111.94;;;18.31;100.00
19457;BME280;9867;48.094;11.478;2023-07-20T03:49:48;95105.31;;;18.45;100.00
19457;BME280;9867;48.094;11.478;2023-07-20T03:52:18;95114.59;;;18.36;100.00
19457;BME280;9867;48.094;11.478;2023-07-20T03:54:46;95107.72;;;18.25;100.00
19457;BME280;9867;48.094;11.478;2023-07-20T03:57:14;95111.03;;;18.42;100.00
19457;BME280;9867;48.094;11.478;2023-07-20T03:59:44;95119.59;;;18.69;100.00
19457;BME280;9867;48.094;11.478;2023-07-20T04:02:13;95117.25;;;18.68;100.00
19457;BME280;9867;48.094;11.478;2023-07-20T04:04:42;95122.91;;;18.60;100.00
19457;BME280;9867;48.094;11.478;2023-07-20T04:07:10;95113.84;;;18.62;100.00
19457;BME280;9867;48.094;11.478;2023-07-20T04:09:42;95105.06;;;18.73;100.00
19457;BME280;9867;48.094;11.478;2023-07-20T04:12:10;95111.31;;;18.72;100.00
19457;BME280;9867;48.094;11.478;2023-07-20T04:14:38;95122.72;;;18.71;100.00
19457;BME280;9867;48.094;11.478;2023-07-20T04:17:06;95113.22;;;18.82;100.00
19457;BME280;9867;48.094;11.478;2023-07-20T04:19:34;95106.16;;;18.78;100.00
19457;BME280;9867;48.094;11.478;2023-07-20T04:22:02;95111.31;;;19.04;100.00
19457;BME280;9867;48.094;11.478;2023-07-20T04:24:31;95120.22;;;19.19;100.00
19457;BME280;9867;48.094;11.478;2023-07-20T04:27:01;95119.16;;;19.10;100.00
19457;BME280;9867;48.094;11.478;2023-07-20T04:29:29;95127.50;;;19.12;100.00
19457;BME280;9867;48.094;11.478;2023-07-20T04:31:57;95129.50;;;19.04;100.00
19457;BME280;9867;48.094;11.478;2023-07-20T04:34:25;95124.56;;;19.03;100.00
19457;BME280;9867;48.094;11.478;2023-07-20T04:36:53;95122.00;;;19.08;100.00
19457;BME280;9867;48.094;11.478;2023-07-20T04:39:23;95116.84;;;19.13;100.00
19457;BME280;9867;48.094;11.478;2023-07-20T04:42:04;95118.81;;;19.01;100.00
19457;BME280;9867;48.094;11.478;2023-07-20T04:44:32;95134.47;;;18.74;100.00
19457;BME280;9867;48.094;11.478;2023-07-20T04:47:00;95120.78;;;18.57;100.00
19457;BME280;9867;48.094;11.478;2023-07-20T04:49:32;95128.56;;;18.84;100.00
19457;BME280;9867;48.094;11.478;2023-07-20T04:52:00;95132.34;;;18.71;100.00
19457;BME280;9867;48.094;11.478;2023-07-20T04:54:30;95141.09;;;18.60;100.00
19457;BME280;9867;48.094;11.478;2023-07-20T04:56:58;95149.72;;;18.44;100.00
19457;BME280;9867;48.094;11.478;2023-07-20T04:59:27;95147.91;;;18.44;100.00
19457;BME280;9867;48.094;11.478;2023-07-20T05:01:55;95148.91;;;18.38;100.00
19457;BME280;9867;48.094;11.478;2023-07-20T05:04:23;95155.19;;;18.42;100.00
19457;BME280;9867;48.094;11.478;2023-07-20T05:06:55;95148.66;;;18.39;100.00
19457;BME280;9867;48.094;11.478;2023-07-20T05:09:23;95138.56;;;18.43;100.00
19457;BME280;9867;48.094;11.478;2023-07-20T05:11:51;95141.59;;;18.35;100.00
19457;BME280;9867;48.094;11.478;2023-07-20T05:14:19;95141.09;;;18.60;100.00
19457;BME280;9867;48.094;11.478;2023-07-20T05:16:51;95138.25;;;18.61;100.00
19457;BME280;9867;48.094;11.478;2023-07-20T05:19:19;95145.69;;;18.80;100.00
19457;BME280;9867;48.094;11.478;2023-07-20T05:21:47;95139.41;;;18.76;100.00
19457;BME280;9867;48.094;11.478;2023-07-20T05:24:15;95143.13;;;18.85;100.00
19457;BME280;9867;48.094;11.478;2023-07-20T05:26:43;95145.09;;;19.04;100.00
19457;BME280;9867;48.094;11.478;2023-07-20T05:29:11;95146.09;;;18.98;100.00
19457;BME280;9867;48.094;11.478;2023-07-20T05:31:39;95151.91;;;18.79;100.00
19457;BME280;9867;48.094;11.478;2023-07-20T05:34:08;95144.78;;;18.96;100.00
19457;BME280;9867;48.094;11.478;2023-07-20T05:36:36;95147.38;;;18.96;100.00
19457;BME280;9867;48.094;11.478;2023-07-20T05:39:33;95150.59;;;18.76;100.00
19457;BME280;9867;48.094;11.478;2023-07-20T05:42:01;95142.22;;;19.01;100.00
19457;BME280;9867;48.094;11.478;2023-07-20T05:44:29;95152.75;;;18.84;100.00
19457;BME280;9867;48.094;11.478;2023-07-20T05:46:57;95156.06;;;19.06;100.00
19457;BME280;9867;48.094;11.478;2023-07-20T05:49:27;95153.34;;;19.28;100.00
19457;BME280;9867;48.094;11.478;2023-07-20T05:51:56;95150.38;;;19.15;100.00
19457;BME280;9867;48.094;11.478;2023-07-20T05:54:24;95154.59;;;19.21;100.00
19457;BME280;9867;48.094;11.478;2023-07-20T05:56:53;95153.59;;;19.27;100.00
19457;BME280;9867;48.094;11.478;2023-07-20T05:59:21;95159.72;;;19.48;100.00
19457;BME280;9867;48.094;11.478;2023-07-20T06:01:50;95157.09;;;19.90;100.00
19457;BME280;9867;48.094;11.478;2023-07-20T06:04:18;95162.06;;;19.96;100.00
19457;BME280;9867;48.094;11.478;2023-07-20T06:06:48;95159.78;;;20.15;100.00
19457;BME280;9867;48.094;11.478;2023-07-20T06:09:16;95158.28;;;20.24;100.00
19457;BME280;9867;48.094;11.478;2023-07-20T06:11:47;95163.81;;;20.38;100.00
19457;BME280;9867;48.094;11.478;2023-07-20T06:14:15;95159.78;;;20.15;100.00
19457;BME280;9867;48.094;11.478;2023-07-20T06:16:43;95173.03;;;20.08;100.00
19457;BME280;9867;48.094;11.478;2023-07-20T06:19:11;95166.56;;;20.16;100.00
19457;BME280;9867;48.094;11.478;2023-07-20T06:21:39;95167.91;;;20.24;100.00
19457;BME280;9867;48.094;11.478;2023-07-20T06:24:09;95160.91;;;20.34;100.00
19457;BME280;9867;48.094;11.478;2023-07-20T06:26:37;95168.03;;;20.54;100.00
19457;BME280;9867;48.094;11.478;2023-07-20T06:29:06;95163.81;;;20.38;100.00
19457;BME280;9867;48.094;11.478;2023-07-20T06:31:34;95166.31;;;20.07;100.00
19457;BME280;9867;48.094;11.478;2023-07-20T06:34:02;95156.19;;;20.31;100.00
19457;BME280;9867;48.094;11.478;2023-07-20T06:36:31;95162.44;;;20.20;100.00
19457;BME280;9867;48.094;11.478;2023-07-20T06:38:59;95153.31;;;20.23;100.00
19457;BME280;9867;48.094;11.478;2023-07-20T06:41:34;95165.50;;;20.07;100.00
19457;BME280;9867;48.094;11.478;2023-07-20T06:44:05;95160.25;;;19.97;100.00
19457;BME280;9867;48.094;11.478;2023-07-20T06:46:34;95152.66;;;19.90;100.00
19457;BME280;9867;48.094;11.478;2023-07-20T06:49:05;95151.44;;;20.08;100.00
19457;BME280;9867;48.094;11.478;2023-07-20T06:51:36;95159.00;;;20.15;100.00
19457;BME280;9867;48.094;11.478;2023-07-20T06:54:04;95164.53;;;20.28;100.00
19457;BME280;9867;48.094;11.478;2023-07-20T06:56:34;95165.91;;;20.46;100.00
19457;BME280;9867;48.094;11.478;2023-07-20T06:59:03;95150.47;;;20.29;100.00
19457;BME280;9867;48.094;11.478;2023-07-20T07:01:32;95159.78;;;20.10;100.00
19457;BME280;9867;48.094;11.478;2023-07-20T07:04:00;95160.84;;;20.19;100.00
19457;BME280;9867;48.094;11.478;2023-07-20T07:06:29;95156.25;;;20.41;100.00
19457;BME280;9867;48.094;11.478;2023-07-20T07:08:57;95155.91;;;20.23;100.00
19457;BME280;9867;48.094;11.478;2023-07-20T07:11:25;95152.81;;;20.26;100.00
19457;BME280;9867;48.094;11.478;2023-07-20T07:13:54;95155.75;;;20.45;100.00
19457;BME280;9867;48.094;11.478;2023-07-20T07:16:23;95163.38;;;20.76;100.00
19457;BME280;9867;48.094;11.478;2023-07-20T07:18:51;95167.81;;;21.11;100.00
19457;BME280;9867;48.094;11.478;2023-07-20T07:21:25;95157.91;;;21.34;100.00
19457;BME280;9867;48.094;11.478;2023-07-20T07:23:53;95158.44;;;21.46;98.73
19457;BME280;9867;48.094;11.478;2023-07-20T07:26:24;95170.44;;;21.27;99.27
19457;BME280;9867;48.094;11.478;2023-07-20T07:28:52;95162.63;;;21.22;94.63
19457;BME280;9867;48.094;11.478;2023-07-20T07:31:21;95164.41;;;21.11;100.00
19457;BME280;9867;48.094;11.478;2023-07-20T07:33:50;95167.84;;;21.22;95.75
19457;BME280;9867;48.094;11.478;2023-07-20T07:36:18;95169.88;;;20.84;95.54
19457;BME280;9867;48.094;11.478;2023-07-20T07:38:47;95163.88;;;20.84;97.05
19457;BME280;9867;48.094;11.478;2023-07-20T07:41:35;95179.03;;;21.07;100.00
19457;BME280;9867;48.094;11.478;2023-07-20T07:44:03;95181.13;;;21.30;94.10
19457;BME280;9867;48.094;11.478;2023-07-20T07:46:33;95165.25;;;21.22;95.78
19457;BME280;9867;48.094;11.478;2023-07-20T07:49:01;95163.38;;;21.48;94.06
19457;BME280;9867;48.094;11.478;2023-07-20T07:51:29;95164.84;;;21.89;99.78
19457;BME280;9867;48.094;11.478;2023-07-20T07:53:57;95166.25;;;21.16;92.46
19457;BME280;9867;48.094;11.478;2023-07-20T07:56:26;95164.69;;;21.35;94.63
19457;BME280;9867;48.094;11.478;2023-07-20T07:58:54;95164.91;;;21.64;93.89
19457;BME280;9867;48.094;11.478;2023-07-20T08:01:21;95172.75;;;21.64;90.26
19457;BME280;9867;48.094;11.478;2023-07-20T08:03:51;95172.22;;;21.67;91.18
19457;BME280;9867;48.094;11.478;2023-07-20T08:06:19;95171.97;;;21.68;84.03
19457;BME280;9867;48.094;11.478;2023-07-20T08:08:48;95169.09;;;21.60;81.42
19457;BME280;9867;48.094;11.478;2023-07-20T08:11:16;95170.28;;;21.98;80.58
19457;BME280;9867;48.094;11.478;2023-07-20T08:13:51;95182.69;;;21.52;80.48
19457;BME280;9867;48.094;11.478;2023-07-20T08:16:19;95179.84;;;21.43;81.01
19457;BME280;9867;48.094;11.478;2023-07-20T08:18:48;95180.59;;;21.64;80.46
19457;BME280;9867;48.094;11.478;2023-07-20T08:21:18;95174.84;;;21.52;80.13
19457;BME280;9867;48.094;11.478;2023-07-20T08:23:46;95174.00;;;21.76;81.94
19457;BME280;9867;48.094;11.478;2023-07-20T08:26:14;95192.53;;;21.85;80.17
19457;BME280;9867;48.094;11.478;2023-07-20T08:28:44;95183.91;;;21.90;80.10
19457;BME280;9867;48.094;11.478;2023-07-20T08:31:12;95179.50;;;21.75;80.65
19457;BME280;9867;48.094;11.478;2023-07-20T08:33:40;95180.78;;;21.88;81.91
19457;BME280;9867;48.094;11.478;2023-07-20T08:36:08;95183.97;;;21.69;83.12
19457;BME280;9867;48.094;11.478;2023-07-20T08:38:39;95183.13;;;21.84;84.54
19457;BME280;9867;48.094;11.478;2023-07-20T08:41:07;95178.63;;;22.00;80.10
19457;BME280;9867;48.094;11.478;2023-07-20T08:43:37;95183.84;;;22.20;82.36
19457;BME280;9867;48.094;11.478;2023-07-20T08:46:08;95185.97;;;21.98;85.00
19457;BME280;9867;48.094;11.478;2023-07-20T08:48:40;95193.53;;;22.09;85.89
19457;BME280;9867;48.094;11.478;2023-07-20T08:51:10;95182.09;;;21.90;87.77
19457;BME280;9867;48.094;11.478;2023-07-20T08:53:41;95174.13;;;22.26;85.62
19457;BME280;9867;48.094;11.478;2023-07-20T08:56:10;95188.50;;;22.23;82.19
19457;BME280;9867;48.094;11.478;2023-07-20T08:58:39;95177.34;;;22.07;82.09
19457;BME280;9867;48.094;11.478;2023-07-20T09:01:11;95177.59;;;22.16;75.64
19457;BME280;9867;48.094;11.478;2023-07-20T09:03:41;95180.78;;;21.83;76.77
19457;BME280;9867;48.094;11.478;2023-07-20T09:06:09;95177.66;;;21.81;77.58
19457;BME280;9867;48.094;11.478;2023-07-20T09:08:38;95169.91;;;22.40;75.82
19457;BME280;9867;48.094;11.478;2023-07-20T09:11:11;95161.41;;;22.63;72.79
19457;BME280;9867;48.094;11.478;2023-07-20T09:13:40;95157.47;;;23.05;70.58
19457;BME280;9867;48.094;11.478;2023-07-20T09:16:09;95164.06;;;22.97;71.16
19457;BME280;9867;48.094;11.478;2023-07-20T09:18:41;95158.53;;;22.99;68.74
19457;BME280;9867;48.094;11.478;2023-07-20T09:21:09;95148.72;;;22.86;69.89
19457;BME280;9867;48.094;11.478;2023-07-20T09:23:38;95148.34;;;23.31;68.44
19457;BME280;9867;48.094;11.478;2023-07-20T09:26:11;95160.06;;;22.66;67.83
19457;BME280;9867;48.094;11.478;2023-07-20T09:28:48;95158.44;;;22.80;66.96
19457;BME280;9867;48.094;11.478;2023-07-20T09:31:17;95155.19;;;22.93;65.22
19457;BME280;9867;48.094;11.478;2023-07-20T09:33:46;95142.06;;;22.98;65.96
19457;BME280;9867;48.094;11.478;2023-07-20T09:36:17;95154.25;;;23.13;65.83
19457;BME280;9867;48.094;11.478;2023-07-20T09:39:05;95159.06;;;23.35;64.27
19457;BME280;9867;48.094;11.478;2023-07-20T09:41:41;95156.59;;;23.43;67.06
19457;BME280;9867;48.094;11.478;2023-07-20T09:44:14;95158.06;;;23.26;64.24
19457;BME280;9867;48.094;11.478;2023-07-20T09:46:46;95151.00;;;23.26;65.69
19457;BME280;9867;48.094;11.478;2023-07-20T09:49:17;95149.97;;;23.80;64.27
19457;BME280;9867;48.094;11.478;2023-07-20T09:51:48;95138.94;;;23.59;71.43
19457;BME280;9867;48.094;11.478;2023-07-20T09:54:17;95135.53;;;23.59;63.20
19457;BME280;9867;48.094;11.478;2023-07-20T09:56:48;95144.81;;;22.83;63.56
19457;BME280;9867;48.094;11.478;2023-07-20T09:59:18;95156.16;;;22.19;66.43
19457;BME280;9867;48.094;11.478;2023-07-20T10:01:46;95143.72;;;21.81;69.48
19457;BME280;9867;48.094;11.478;2023-07-20T10:04:16;95145.84;;;22.38;66.43
19457;BME280;9867;48.094;11.478;2023-07-20T10:06:49;95137.38;;;22.95;64.00
19457;BME280;9867;48.094;11.478;2023-07-20T10:09:18;95140.94;;;23.09;67.08
19457;BME280;9867;48.094;11.478;2023-07-20T10:11:50;95134.09;;;23.13;67.12
19457;BME280;9867;48.094;11.478;2023-07-20T10:14:41;95138.59;;;23.66;64.10
19457;BME280;9867;48.094;11.478;2023-07-20T10:17:13;95136.97;;;23.94;62.37
19457;BME280;9867;48.094;11.478;2023-07-20T10:19:46;95141.31;;;23.27;63.76
19457;BME280;9867;48.094;11.478;2023-07-20T10:22:19;95140.41;;;23.12;66.21
19457;BME280;9867;48.094;11.478;2023-07-20T10:24:50;95133.19;;;22.94;70.67
19457;BME280;9867;48.094;11.478;2023-07-20T10:27:22;95131.03;;;23.35;71.27
19457;BME280;9867;48.094;11.478;2023-07-20T10:29:51;95131.97;;;23.73;64.49
19457;BME280;9867;48.094;11.478;2023-07-20T10:32:22;95125.25;;;23.86;63.07
19457;BME280;9867;48.094;11.478;2023-07-20T10:34:50;95124.00;;;23.84;62.41
19457;BME280;9867;48.094;11.478;2023-07-20T10:37:51;95112.53;;;23.98;59.39
19457;BME280;9867;48.094;11.478;2023-07-20T10:40:28;95122.59;;;24.10;59.80
19457;BME280;9867;48.094;11.478;2023-07-20T10:43:03;95121.47;;;24.40;58.43
19457;BME280;9867;48.094;11.478;2023-07-20T10:45:50;95119.59;;;24.22;58.70
19457;BME280;9867;48.094;11.478;2023-07-20T10:48:19;95132.00;;;23.92;59.21
19457;BME280;9867;48.094;11.478;2023-07-20T10:51:08;95118.25;;;23.82;60.88
19457;BME280;9867;48.094;11.478;2023-07-20T10:53:36;95121.66;;;23.58;63.03
19457;BME280;9867;48.094;11.478;2023-07-20T10:56:09;95121.38;;;23.60;62.13
19457;BME280;9867;48.094;11.478;2023-07-20T10:58:41;95110.97;;;23.50;63.56
19457;BME280;9867;48.094;11.478;2023-07-20T11:01:13;95113.38;;;23.94;61.10
19457;BME280;9867;48.094;11.478;2023-07-20T11:03:42;95105.38;;;23.85;59.41
19457;BME280;9867;48.094;11.478;2023-07-20T11:06:30;95101.75;;;24.24;56.43
19457;BME280;9867;48.094;11.478;2023-07-20T11:09:04;95095.97;;;24.27;58.79
19457;BME280;9867;48.094;11.478;2023-07-20T11:11:36;95112.34;;;24.56;54.64
19457;BME280;9867;48.094;11.478;2023-07-20T11:14:07;95109.06;;;24.27;55.44
19457;BME280;9867;48.094;11.478;2023-07-20T11:16:40;95106.09;;;23.67;57.46
19457;BME280;9867;48.094;11.478;2023-07-20T11:19:17;95093.69;;;23.96;55.11
19457;BME280;9867;48.094;11.478;2023-07-20T11:21:51;95097.16;;;24.34;56.26
19457;BME280;9867;48.094;11.478;2023-07-20T11:24:29;95092.69;;;23.92;57.64
19457;BME280;9867;48.094;11.478;2023-07-20T11:26:57;95100.72;;;24.01;56.99
19457;BME280;9867;48.094;11.478;2023-07-20T11:29:27;95097.00;;;24.44;55.27
19457;BME280;9867;48.094;11.478;2023-07-20T11:32:01;95089.94;;;23.84;57.41
19457;BME280;9867;48.094;11.478;2023-07-20T11:34:32;95100.75;;;23.53;58.73
19457;BME280;9867;48.094;11.478;2023-07-20T11:37:00;95097.88;;;23.97;57.56
19457;BME280;9867;48.094;11.478;2023-07-20T11:39:32;95097.56;;;23.80;56.35
19457;BME280;9867;48.094;11.478;2023-07-20T11:42:00;95091.84;;;23.78;57.39
19457;BME280;9867;48.094;11.478;2023-07-20T11:44:29;95093.75;;;23.91;57.12
19457;BME280;9867;48.094;11.478;2023-07-20T11:47:00;95087.09;;;24.41;55.04
19457;BME280;9867;48.094;11.478;2023-07-20T11:49:30;95076.19;;;24.53;53.59
19457;BME280;9867;48.094;11.478;2023-07-20T11:52:02;95071.91;;;25.22;52.66
19457;BME280;9867;48.094;11.478;2023-07-20T11:54:31;95067.25;;;25.60;52.23
19457;BME280;9867;48.094;11.478;2023-07-20T11:57:00;95071.41;;;26.02;51.97
19457;BME280;9867;48.094;11.478;2023-07-20T11:59:30;95079.25;;;25.66;49.98
19457;BME280;9867;48.094;11.478;2023-07-20T12:01:58;95074.47;;;25.82;49.56
19457;BME280;9867;48.094;11.478;2023-07-20T12:04:29;95068.09;;;25.28;49.33
19457;BME280;9867;48.094;11.478;2023-07-20T12:06:58;95065.94;;;25.63;49.17
19457;BME280;9867;48.094;11.478;2023-07-20T12:09:26;95053.94;;;25.84;49.06
19457;BME280;9867;48.094;11.478;2023-07-20T12:12:12;95063.00;;;25.51;50.41
19457;BME280;9867;48.094;11.478;2023-07-20T12:14:41;95068.81;;;25.47;50.54
19457;BME280;9867;48.094;11.478;2023-07-20T12:17:09;95051.78;;;25.31;53.13
19457;BME280;9867;48.094;11.478;2023-07-20T12:19:38;95043.41;;;25.57;52.75
19457;BME280;9867;48.094;11.478;2023-07-20T12:22:07;95048.47;;;25.26;52.04
19457;BME280;9867;48.094;11.478;2023-07-20T12:24:35;95059.00;;;25.39;53.04
19457;BME280;9867;48.094;11.478;2023-07-20T12:27:04;95038.84;;;25.48;50.73
19457;BME280;9867;48.094;11.478;2023-07-20T12:29:32;95040.53;;;25.72;53.68
19457;BME280;9867;48.094;11.478;2023-07-20T12:32:05;95038.34;;;25.19;51.56
19457;BME280;9867;48.094;11.478;2023-07-20T12:34:33;95024.56;;;25.68;53.21
19457;BME280;9867;48.094;11.478;2023-07-20T12:37:03;95046.03;;;25.84;50.65
19457;BME280;9867;48.094;11.478;2023-07-20T12:39:32;95024.38;;;25.65;50.26
19457;BME280;9867;48.094;11.478;2023-07-20T12:42:00;95033.19;;;25.00;51.28
19457;BME280;9867;48.094;11.478;2023-07-20T12:44:28;95030.94;;;25.07;52.07
19457;BME280;9867;48.094;11.478;2023-07-20T12:46:56;95025.56;;;24.66;53.63
19457;BME280;9867;48.094;11.478;2023-07-20T12:49:26;95030.38;;;24.45;55.14
19457;BME280;9867;48.094;11.478;2023-07-20T12:51:53;95017.63;;;25.18;54.52
19457;BME280;9867;48.094;11.478;2023-07-20T12:54:21;95023.53;;;25.09;54.11
19457;BME280;9867;48.094;11.478;2023-07-20T12:56:49;95010.03;;;25.57;50.84
19457;BME280;9867;48.094;11.478;2023-07-20T12:59:21;95012.47;;;25.40;53.39
19457;BME280;9867;48.094;11.478;2023-07-20T13:01:49;95012.56;;;25.76;50.50
19457;BME280;9867;48.094;11.478;2023-07-20T13:04:17;95006.16;;;25.41;50.24
19457;BME280;9867;48.094;11.478;2023-07-20T13:06:47;95003.59;;;25.08;50.13
19457;BME280;9867;48.094;11.478;2023-07-20T13:09:15;95004.31;;;25.69;47.95
19457;BME280;9867;48.094;11.478;2023-07-20T13:11:42;95004.91;;;26.02;47.15
19457;BME280;9867;48.094;11.478;2023-07-20T13:14:10;95005.78;;;26.11;47.53